sensor_id;sensor_type;location;lat;lon;timestamp;temperature;humidity
51996;DHT22;38010;53.264;6.592;2023-02-15T00:02:25;13.80;99.90
51996;DHT22;38010;53.264;6.592;2023-02-15T00:04:50;13.90;99.90
51996;DHT22;38010;53.264;6.592;2023-02-15T00:07:17;13.80;99.90
51996;DHT22;38010;53.264;6.592;2023-02-15T00:09:46;13.80;99.90
51996;DHT22;38010;53.264;6.592;2023-02-15T00:12:11;13.80;99.90
51996;DHT22;38010;53.264;6.592;2023-02-15T00:14:37;13.80;99.90
51996;DHT22;38010;53.264;6.592;2023-02-15T00:17:03;13.80;99.90
51996;DHT22;38010;53.264;6.592;2023-02-15T00:19:28;13.80;99.90
51996;DHT22;38010;53.264;6.592;2023-02-15T00:21:54;13.80;99.90
51996;DHT22;38010;53.264;6.592;2023-02-15T00:24:21;13.80;99.90
51996;DHT22;38010;53.264;6.592;2023-02-15T00:26:48;13.80;99.90
51996;DHT22;38010;53.264;6.592;2023-02-15T00:29:15;13.80;99.90
51996;DHT22;38010;53.264;6.592;2023-02-15T00:31:41;13.80;99.90
51996;DHT22;38010;53.264;6.592;2023-02-15T00:36:36;13.80;99.90
51996;DHT22;38010;53.264;6.592;2023-02-15T00:39:02;13.70;99.90
51996;DHT22;38010;53.264;6.592;2023-02-15T00:41:30;13.80;99.90
51996;DHT22;38010;53.264;6.592;2023-02-15T00:43:56;13.80;99.90
51996;DHT22;38010;53.264;6.592;2023-02-15T00:46:22;13.70;99.90
51996;DHT22;38010;53.264;6.592;2023-02-15T00:48:48;13.70;99.90
51996;DHT22;38010;53.264;6.592;2023-02-15T00:51:13;13.70;99.90
51996;DHT22;38010;53.264;6.592;2023-02-15T00:53:39;13.70;99.90
51996;DHT22;38010;53.264;6.592;2023-02-15T00:56:05;13.70;99.90
51996;DHT22;38010;53.264;6.592;2023-02-15T00:58:31;13.70;99.90
51996;DHT22;38010;53.264;6.592;2023-02-15T01:01:05;13.70;99.90
51996;DHT22;38010;53.264;6.592;2023-02-15T01:03:32;13.70;99.90
51996;DHT22;38010;53.264;6.592;2023-02-15T01:05:58;13.70;99.90
51996;DHT22;38010;53.264;6.592;2023-02-15T01:08:24;13.70;99.90
51996;DHT22;38010;53.264;6.592;2023-02-15T01:10:50;13.70;99.90
51996;DHT22;38010;53.264;6.592;2023-02-15T01:13:16;13.60;99.90
51996;DHT22;38010;53.264;6.592;2023-02-15T01:15:43;13.70;99.90
51996;DHT22;38010;53.264;6.592;2023-02-15T01:18:10;13.60;99.90
51996;DHT22;38010;53.264;6.592;2023-02-15T01:20:38;13.60;99.90
51996;DHT22;38010;53.264;6.592;2023-02-15T01:23:05;13.60;99.90
51996;DHT22;38010;53.264;6.592;2023-02-15T01:25:33;13.60;99.90
51996;DHT22;38010;53.264;6.592;2023-02-15T01:28:00;13.60;99.90
51996;DHT22;38010;53.264;6.592;2023-02-15T01:30:26;13.60;99.90
51996;DHT22;38010;53.264;6.592;2023-02-15T01:32:52;13.60;99.90
51996;DHT22;38010;53.264;6.592;2023-02-15T01:35:17;13.60;99.90
51996;DHT22;38010;53.264;6.592;2023-02-15T01:37:43;13.60;99.90
51996;DHT22;38010;53.264;6.592;2023-02-15T01:40:14;13.60;99.90
51996;DHT22;38010;53.264;6.592;2023-02-15T01:42:40;13.60;99.90
51996;DHT22;38010;53.264;6.592;2023-02-15T01:45:27;13.50;99.90
51996;DHT22;38010;53.264;6.592;2023-02-15T01:48:03;13.50;99.90
51996;DHT22;38010;53.264;6.592;2023-02-15T01:50:48;13.50;99.90
51996;DHT22;38010;53.264;6.592;2023-02-15T01:53:49;13.50;99.90
51996;DHT22;38010;53.264;6.592;2023-02-15T01:56:24;13.50;99.90
51996;DHT22;38010;53.264;6.592;2023-02-15T01:58:54;13.50;99.90
51996;DHT22;38010;53.264;6.592;2023-02-15T02:01:21;13.50;99.90
51996;DHT22;38010;53.264;6.592;2023-02-15T02:04:08;13.50;99.90
51996;DHT22;38010;53.264;6.592;2023-02-15T02:06:36;13.50;99.90
51996;DHT22;38010;53.264;6.592;2023-02-15T02:09:03;13.50;99.90
51996;DHT22;38010;53.264;6.592;2023-02-15T02:11:29;13.50;99.90
51996;DHT22;38010;53.264;6.592;2023-02-15T02:13:55;13.40;99.90
51996;DHT22;38010;53.264;6.592;2023-02-15T02:31:15;13.40;99.90
51996;DHT22;38010;53.264;6.592;2023-02-15T02:36:35;13.40;99.90
51996;DHT22;38010;53.264;6.592;2023-02-15T02:47:23;13.30;99.90
51996;DHT22;38010;53.264;6.592;2023-02-15T02:50:07;13.30;99.90
51996;DHT22;38010;53.264;6.592;2023-02-15T02:52:50;13.30;99.90
51996;DHT22;38010;53.264;6.592;2023-02-15T02:58:14;13.30;99.90
51996;DHT22;38010;53.264;6.592;2023-02-15T03:00:55;13.30;99.90
51996;DHT22;38010;53.264;6.592;2023-02-15T03:08:29;13.30;99.90
51996;DHT22;38010;53.264;6.592;2023-02-15T03:11:00;13.30;99.90
51996;DHT22;38010;53.264;6.592;2023-02-15T03:13:27;13.30;99.90
51996;DHT22;38010;53.264;6.592;2023-02-15T03:15:53;12.30;99.90
51996;DHT22;38010;53.264;6.592;2023-02-15T03:18:44;13.30;99.90
51996;DHT22;38010;53.264;6.592;2023-02-15T03:21:22;13.20;99.90
51996;DHT22;38010;53.264;6.592;2023-02-15T03:23:52;13.30;99.90
51996;DHT22;38010;53.264;6.592;2023-02-15T03:26:20;13.20;99.90
51996;DHT22;38010;53.264;6.592;2023-02-15T03:28:48;13.20;99.90
51996;DHT22;38010;53.264;6.592;2023-02-15T03:31:17;13.20;99.90
51996;DHT22;38010;53.264;6.592;2023-02-15T03:33:59;13.20;99.90
51996;DHT22;38010;53.264;6.592;2023-02-15T03:36:50;13.20;99.90
51996;DHT22;38010;53.264;6.592;2023-02-15T03:39:27;13.20;99.90
51996;DHT22;38010;53.264;6.592;2023-02-15T03:42:04;13.20;99.90
51996;DHT22;38010;53.264;6.592;2023-02-15T03:44:33;13.20;99.90
51996;DHT22;38010;53.264;6.592;2023-02-15T03:47:09;13.20;99.90
51996;DHT22;38010;53.264;6.592;2023-02-15T03:49:48;13.20;99.90
51996;DHT22;38010;53.264;6.592;2023-02-15T03:52:17;13.20;99.90
51996;DHT22;38010;53.264;6.592;2023-02-15T03:54:43;13.20;99.90
51996;DHT22;38010;53.264;6.592;2023-02-15T03:57:19;13.20;99.90
51996;DHT22;38010;53.264;6.592;2023-02-15T04:00:15;13.10;99.90
51996;DHT22;38010;53.264;6.592;2023-02-15T04:03:23;13.10;99.90
51996;DHT22;38010;53.264;6.592;2023-02-15T04:05:53;13.10;99.90
51996;DHT22;38010;53.264;6.592;2023-02-15T04:08:19;13.20;99.90
51996;DHT22;38010;53.264;6.592;2023-02-15T04:10:44;13.10;99.90
51996;DHT22;38010;53.264;6.592;2023-02-15T04:13:30;13.10;99.90
51996;DHT22;38010;53.264;6.592;2023-02-15T04:15:56;13.20;99.90
51996;DHT22;38010;53.264;6.592;2023-02-15T04:18:32;13.20;99.90
51996;DHT22;38010;53.264;6.592;2023-02-15T04:21:18;13.20;99.90
51996;DHT22;38010;53.264;6.592;2023-02-15T04:24:02;13.20;99.90
51996;DHT22;38010;53.264;6.592;2023-02-15T04:26:46;13.20;99.90
51996;DHT22;38010;53.264;6.592;2023-02-15T04:29:21;13.20;99.90
51996;DHT22;38010;53.264;6.592;2023-02-15T04:31:47;13.20;99.90
51996;DHT22;38010;53.264;6.592;2023-02-15T04:34:14;13.20;99.90
51996;DHT22;38010;53.264;6.592;2023-02-15T04:36:41;13.20;99.90
51996;DHT22;38010;53.264;6.592;2023-02-15T04:39:08;13.20;99.90
51996;DHT22;38010;53.264;6.592;2023-02-15T04:41:34;13.20;99.90
51996;DHT22;38010;53.264;6.592;2023-02-15T04:44:00;13.20;99.90
51996;DHT22;38010;53.264;6.592;2023-02-15T04:46:27;13.20;99.90
51996;DHT22;38010;53.264;6.592;2023-02-15T04:48:53;13.20;99.90
51996;DHT22;38010;53.264;6.592;2023-02-15T04:51:19;13.20;99.90
51996;DHT22;38010;53.264;6.592;2023-02-15T04:53:44;13.20;99.90
51996;DHT22;38010;53.264;6.592;2023-02-15T04:56:10;13.20;99.90
51996;DHT22;38010;53.264;6.592;2023-02-15T04:58:36;13.20;99.90
51996;DHT22;38010;53.264;6.592;2023-02-15T05:01:03;13.20;99.90
51996;DHT22;38010;53.264;6.592;2023-02-15T05:03:29;13.20;99.90
51996;DHT22;38010;53.264;6.592;2023-02-15T05:05:54;13.20;99.90
51996;DHT22;38010;53.264;6.592;2023-02-15T05:08:20;13.20;99.90
51996;DHT22;38010;53.264;6.592;2023-02-15T05:10:48;13.20;99.90
51996;DHT22;38010;53.264;6.592;2023-02-15T05:13:14;13.20;99.90
51996;DHT22;38010;53.264;6.592;2023-02-15T05:15:40;13.20;99.90
51996;DHT22;38010;53.264;6.592;2023-02-15T05:18:06;13.20;99.90
51996;DHT22;38010;53.264;6.592;2023-02-15T05:20:33;13.30;99.90
51996;DHT22;38010;53.264;6.592;2023-02-15T05:22:59;13.30;99.90
51996;DHT22;38010;53.264;6.592;2023-02-15T05:25:24;13.30;99.90
51996;DHT22;38010;53.264;6.592;2023-02-15T05:28:10;13.30;99.90
51996;DHT22;38010;53.264;6.592;2023-02-15T05:30:46;13.30;99.90
51996;DHT22;38010;53.264;6.592;2023-02-15T05:33:11;13.30;99.90
51996;DHT22;38010;53.264;6.592;2023-02-15T05:35:37;13.30;99.90
51996;DHT22;38010;53.264;6.592;2023-02-15T05:38:03;13.30;99.90
51996;DHT22;38010;53.264;6.592;2023-02-15T05:40:28;13.30;99.90
51996;DHT22;38010;53.264;6.592;2023-02-15T05:42:54;13.30;99.90
51996;DHT22;38010;53.264;6.592;2023-02-15T05:45:21;13.20;99.90
51996;DHT22;38010;53.264;6.592;2023-02-15T05:47:46;13.30;99.90
51996;DHT22;38010;53.264;6.592;2023-02-15T05:50:12;13.30;99.90
51996;DHT22;38010;53.264;6.592;2023-02-15T05:52:38;13.30;99.90
51996;DHT22;38010;53.264;6.592;2023-02-15T05:55:04;13.30;99.90
51996;DHT22;38010;53.264;6.592;2023-02-15T05:57:30;13.30;99.90
51996;DHT22;38010;53.264;6.592;2023-02-15T05:59:56;13.40;99.90
51996;DHT22;38010;53.264;6.592;2023-02-15T06:02:22;13.40;99.90
51996;DHT22;38010;53.264;6.592;2023-02-15T06:04:48;13.40;99.90
51996;DHT22;38010;53.264;6.592;2023-02-15T06:07:14;13.40;99.90
51996;DHT22;38010;53.264;6.592;2023-02-15T06:09:39;13.40;99.90
51996;DHT22;38010;53.264;6.592;2023-02-15T06:12:05;13.50;99.90
51996;DHT22;38010;53.264;6.592;2023-02-15T06:14:31;13.50;99.90
51996;DHT22;38010;53.264;6.592;2023-02-15T06:16:56;13.50;99.90
51996;DHT22;38010;53.264;6.592;2023-02-15T06:19:22;13.50;99.90
51996;DHT22;38010;53.264;6.592;2023-02-15T06:21:49;13.60;99.90
51996;DHT22;38010;53.264;6.592;2023-02-15T06:24:14;13.60;99.90
51996;DHT22;38010;53.264;6.592;2023-02-15T06:26:40;13.60;99.90
51996;DHT22;38010;53.264;6.592;2023-02-15T06:29:06;13.60;99.90
51996;DHT22;38010;53.264;6.592;2023-02-15T06:31:32;13.70;99.90
51996;DHT22;38010;53.264;6.592;2023-02-15T06:33:57;13.70;99.90
51996;DHT22;38010;53.264;6.592;2023-02-15T06:36:27;13.70;99.90
51996;DHT22;38010;53.264;6.592;2023-02-15T06:38:54;13.70;99.90
51996;DHT22;38010;53.264;6.592;2023-02-15T06:41:20;13.70;99.90
51996;DHT22;38010;53.264;6.592;2023-02-15T06:43:45;13.70;99.90
51996;DHT22;38010;53.264;6.592;2023-02-15T06:46:11;13.70;99.90
51996;DHT22;38010;53.264;6.592;2023-02-15T06:48:37;13.70;99.90
51996;DHT22;38010;53.264;6.592;2023-02-15T06:51:03;13.70;99.90
51996;DHT22;38010;53.264;6.592;2023-02-15T06:53:29;13.70;99.90
51996;DHT22;38010;53.264;6.592;2023-02-15T06:56:06;13.70;99.90
51996;DHT22;38010;53.264;6.592;2023-02-15T06:58:39;13.60;99.90
51996;DHT22;38010;53.264;6.592;2023-02-15T07:01:05;13.60;99.90
51996;DHT22;38010;53.264;6.592;2023-02-15T07:03:31;13.60;99.90
51996;DHT22;38010;53.264;6.592;2023-02-15T07:05:58;13.60;99.90
51996;DHT22;38010;53.264;6.592;2023-02-15T07:08:24;13.60;99.90
51996;DHT22;38010;53.264;6.592;2023-02-15T07:10:51;13.60;99.90
51996;DHT22;38010;53.264;6.592;2023-02-15T07:13:17;13.60;99.90
51996;DHT22;38010;53.264;6.592;2023-02-15T07:15:44;13.50;99.90
51996;DHT22;38010;53.264;6.592;2023-02-15T07:18:10;13.50;99.90
51996;DHT22;38010;53.264;6.592;2023-02-15T07:20:36;13.60;99.90
51996;DHT22;38010;53.264;6.592;2023-02-15T07:23:03;13.50;99.90
51996;DHT22;38010;53.264;6.592;2023-02-15T07:25:29;13.50;99.90
51996;DHT22;38010;53.264;6.592;2023-02-15T07:28:00;13.50;99.90
51996;DHT22;38010;53.264;6.592;2023-02-15T07:30:26;13.50;99.90
51996;DHT22;38010;53.264;6.592;2023-02-15T07:32:58;13.50;99.90
51996;DHT22;38010;53.264;6.592;2023-02-15T07:36:03;13.60;99.90
51996;DHT22;38010;53.264;6.592;2023-02-15T07:38:34;13.60;99.90
51996;DHT22;38010;53.264;6.592;2023-02-15T07:41:01;13.60;99.90
51996;DHT22;38010;53.264;6.592;2023-02-15T07:43:28;13.60;99.90
51996;DHT22;38010;53.264;6.592;2023-02-15T07:45:58;13.60;99.90
51996;DHT22;38010;53.264;6.592;2023-02-15T07:48:24;13.60;99.90
51996;DHT22;38010;53.264;6.592;2023-02-15T07:50:49;13.60;99.90
51996;DHT22;38010;53.264;6.592;2023-02-15T07:53:15;13.60;99.90
51996;DHT22;38010;53.264;6.592;2023-02-15T07:55:40;13.60;99.90
51996;DHT22;38010;53.264;6.592;2023-02-15T07:58:06;13.60;99.90
51996;DHT22;38010;53.264;6.592;2023-02-15T08:00:32;13.60;99.90
51996;DHT22;38010;53.264;6.592;2023-02-15T08:03:18;13.60;99.90
51996;DHT22;38010;53.264;6.592;2023-02-15T08:05:45;13.70;99.90
51996;DHT22;38010;53.264;6.592;2023-02-15T08:08:11;13.70;99.90
51996;DHT22;38010;53.264;6.592;2023-02-15T08:19:08;13.70;99.90
51996;DHT22;38010;53.264;6.592;2023-02-15T08:21:36;13.70;99.90
51996;DHT22;38010;53.264;6.592;2023-02-15T08:24:03;13.70;99.90
51996;DHT22;38010;53.264;6.592;2023-02-15T08:26:30;13.70;99.90
51996;DHT22;38010;53.264;6.592;2023-02-15T08:28:57;13.70;99.90
51996;DHT22;38010;53.264;6.592;2023-02-15T08:31:23;13.70;99.90
51996;DHT22;38010;53.264;6.592;2023-02-15T08:33:51;13.70;99.90
51996;DHT22;38010;53.264;6.592;2023-02-15T08:36:20;13.70;99.90
51996;DHT22;38010;53.264;6.592;2023-02-15T08:38:46;13.70;99.90
51996;DHT22;38010;53.264;6.592;2023-02-15T08:43:43;13.70;99.90
51996;DHT22;38010;53.264;6.592;2023-02-15T08:46:10;13.70;99.90
51996;DHT22;38010;53.264;6.592;2023-02-15T08:48:36;13.70;99.90
51996;DHT22;38010;53.264;6.592;2023-02-15T08:51:06;13.60;99.90
51996;DHT22;38010;53.264;6.592;2023-02-15T08:53:32;13.60;99.90
51996;DHT22;38010;53.264;6.592;2023-02-15T08:55:58;13.60;99.90
51996;DHT22;38010;53.264;6.592;2023-02-15T08:58:24;13.60;99.90
51996;DHT22;38010;53.264;6.592;2023-02-15T09:00:51;13.60;99.90
51996;DHT22;38010;53.264;6.592;2023-02-15T09:03:17;13.60;99.90
51996;DHT22;38010;53.264;6.592;2023-02-15T09:05:42;13.60;99.90
51996;DHT22;38010;53.264;6.592;2023-02-15T09:08:08;13.60;99.90
51996;DHT22;38010;53.264;6.592;2023-02-15T09:10:34;13.60;99.90
51996;DHT22;38010;53.264;6.592;2023-02-15T09:13:00;13.60;99.90
51996;DHT22;38010;53.264;6.592;2023-02-15T09:15:25;13.60;99.90
51996;DHT22;38010;53.264;6.592;2023-02-15T09:17:51;13.50;99.90
51996;DHT22;38010;53.264;6.592;2023-02-15T09:20:17;13.50;99.90
51996;DHT22;38010;53.264;6.592;2023-02-15T09:22:43;13.50;99.90
51996;DHT22;38010;53.264;6.592;2023-02-15T09:25:08;13.50;99.90
51996;DHT22;38010;53.264;6.592;2023-02-15T09:27:34;13.50;99.90
51996;DHT22;38010;53.264;6.592;2023-02-15T09:30:00;13.50;99.90
51996;DHT22;38010;53.264;6.592;2023-02-15T09:32:25;13.50;99.90
51996;DHT22;38010;53.264;6.592;2023-02-15T09:34:51;13.50;99.90
51996;DHT22;38010;53.264;6.592;2023-02-15T09:37:16;13.50;99.90
51996;DHT22;38010;53.264;6.592;2023-02-15T09:39:44;13.40;99.90
51996;DHT22;38010;53.264;6.592;2023-02-15T09:48:19;13.40;99.90
51996;DHT22;38010;53.264;6.592;2023-02-15T09:51:28;13.40;99.90
51996;DHT22;38010;53.264;6.592;2023-02-15T09:56:53;13.40;99.90
51996;DHT22;38010;53.264;6.592;2023-02-15T10:17:15;13.40;99.90
51996;DHT22;38010;53.264;6.592;2023-02-15T10:19:51;13.40;99.90
51996;DHT22;38010;53.264;6.592;2023-02-15T10:22:43;13.40;99.90
51996;DHT22;38010;53.264;6.592;2023-02-15T10:28:26;13.30;99.90
51996;DHT22;38010;53.264;6.592;2023-02-15T10:30:59;13.30;99.90
51996;DHT22;38010;53.264;6.592;2023-02-15T10:33:39;13.30;99.90
51996;DHT22;38010;53.264;6.592;2023-02-15T10:42:08;13.30;99.90
51996;DHT22;38010;53.264;6.592;2023-02-15T10:47:35;13.30;99.90
51996;DHT22;38010;53.264;6.592;2023-02-15T10:50:26;13.30;99.90
51996;DHT22;38010;53.264;6.592;2023-02-15T11:07:41;13.30;99.90
51996;DHT22;38010;53.264;6.592;2023-02-15T11:10:46;13.30;99.90
51996;DHT22;38010;53.264;6.592;2023-02-15T11:13:18;13.30;99.90
51996;DHT22;38010;53.264;6.592;2023-02-15T11:15:49;13.30;99.90
51996;DHT22;38010;53.264;6.592;2023-02-15T11:21:05;13.20;99.90
51996;DHT22;38010;53.264;6.592;2023-02-15T11:23:36;13.20;99.90
51996;DHT22;38010;53.264;6.592;2023-02-15T11:26:13;13.20;99.90
51996;DHT22;38010;53.264;6.592;2023-02-15T11:28:47;13.20;99.90
51996;DHT22;38010;53.264;6.592;2023-02-15T11:31:20;13.20;99.90
51996;DHT22;38010;53.264;6.592;2023-02-15T11:33:50;13.20;99.90
51996;DHT22;38010;53.264;6.592;2023-02-15T11:36:31;13.20;99.90
51996;DHT22;38010;53.264;6.592;2023-02-15T11:39:02;13.20;99.90
51996;DHT22;38010;53.264;6.592;2023-02-15T11:41:36;13.20;99.90
51996;DHT22;38010;53.264;6.592;2023-02-15T11:44:22;13.20;99.90
51996;DHT22;38010;53.264;6.592;2023-02-15T11:46:51;13.20;99.90
51996;DHT22;38010;53.264;6.592;2023-02-15T11:49:30;13.20;99.90
51996;DHT22;38010;53.264;6.592;2023-02-15T11:51:58;13.20;99.90
51996;DHT22;38010;53.264;6.592;2023-02-15T11:54:30;13.20;99.90
51996;DHT22;38010;53.264;6.592;2023-02-15T11:59:37;13.20;99.90
51996;DHT22;38010;53.264;6.592;2023-02-15T12:02:20;13.20;99.90
51996;DHT22;38010;53.264;6.592;2023-02-15T12:05:00;13.20;99.90
51996;DHT22;38010;53.264;6.592;2023-02-15T12:07:32;13.20;99.90
51996;DHT22;38010;53.264;6.592;2023-02-15T12:10:27;13.20;99.90
51996;DHT22;38010;53.264;6.592;2023-02-15T12:13:14;13.20;99.90
51996;DHT22;38010;53.264;6.592;2023-02-15T12:15:43;13.20;99.90
51996;DHT22;38010;53.264;6.592;2023-02-15T12:18:36;13.20;99.90
51996;DHT22;38010;53.264;6.592;2023-02-15T12:21:14;13.20;99.90
51996;DHT22;38010;53.264;6.592;2023-02-15T12:23:50;13.20;99.90
51996;DHT22;38010;53.264;6.592;2023-02-15T12:26:27;13.20;99.90
51996;DHT22;38010;53.264;6.592;2023-02-15T12:28:54;13.20;99.90
51996;DHT22;38010;53.264;6.592;2023-02-15T12:31:36;13.20;99.90
51996;DHT22;38010;53.264;6.592;2023-02-15T12:34:07;13.20;99.90
51996;DHT22;38010;53.264;6.592;2023-02-15T12:36:46;13.20;99.90
51996;DHT22;38010;53.264;6.592;2023-02-15T12:39:27;13.20;99.90
51996;DHT22;38010;53.264;6.592;2023-02-15T12:44:23;13.20;99.90
51996;DHT22;38010;53.264;6.592;2023-02-15T12:49:23;13.20;99.90
51996;DHT22;38010;53.264;6.592;2023-02-15T12:51:51;13.20;99.90
51996;DHT22;38010;53.264;6.592;2023-02-15T12:54:40;13.20;99.90
51996;DHT22;38010;53.264;6.592;2023-02-15T12:57:22;13.20;99.90
51996;DHT22;38010;53.264;6.592;2023-02-15T13:05:05;13.20;99.90
51996;DHT22;38010;53.264;6.592;2023-02-15T13:07:45;13.20;99.90
51996;DHT22;38010;53.264;6.592;2023-02-15T13:10:27;13.30;99.90
51996;DHT22;38010;53.264;6.592;2023-02-15T13:12:55;13.20;99.90
51996;DHT22;38010;53.264;6.592;2023-02-15T13:15:36;13.30;99.90
51996;DHT22;38010;53.264;6.592;2023-02-15T13:18:05;13.30;99.90
51996;DHT22;38010;53.264;6.592;2023-02-15T13:20:32;13.30;99.90
51996;DHT22;38010;53.264;6.592;2023-02-15T13:23:03;13.30;99.90
51996;DHT22;38010;53.264;6.592;2023-02-15T13:25:35;13.20;99.90
51996;DHT22;38010;53.264;6.592;2023-02-15T13:28:06;13.30;99.90
51996;DHT22;38010;53.264;6.592;2023-02-15T13:30:38;13.30;99.90
51996;DHT22;38010;53.264;6.592;2023-02-15T13:33:30;13.20;99.90
51996;DHT22;38010;53.264;6.592;2023-02-15T13:36:10;13.20;99.90
51996;DHT22;38010;53.264;6.592;2023-02-15T13:41:35;13.30;99.90
51996;DHT22;38010;53.264;6.592;2023-02-15T13:44:29;13.30;99.90
51996;DHT22;38010;53.264;6.592;2023-02-15T13:47:11;13.20;99.90
51996;DHT22;38010;53.264;6.592;2023-02-15T13:52:24;13.20;99.90
51996;DHT22;38010;53.264;6.592;2023-02-15T14:06:00;13.20;99.90
51996;DHT22;38010;53.264;6.592;2023-02-15T14:19:40;13.30;99.90
51996;DHT22;38010;53.264;6.592;2023-02-15T14:22:27;13.40;99.90
51996;DHT22;38010;53.264;6.592;2023-02-15T14:30:31;13.50;99.90
51996;DHT22;38010;53.264;6.592;2023-02-15T14:35:46;13.70;99.90
51996;DHT22;38010;53.264;6.592;2023-02-15T14:40:57;13.80;99.90
51996;DHT22;38010;53.264;6.592;2023-02-15T14:43:46;13.90;99.90
51996;DHT22;38010;53.264;6.592;2023-02-15T14:49:12;14.10;99.90
51996;DHT22;38010;53.264;6.592;2023-02-15T14:54:09;14.20;99.90
51996;DHT22;38010;53.264;6.592;2023-02-15T15:48:33;14.00;99.90
51996;DHT22;38010;53.264;6.592;2023-02-15T15:51:26;14.00;99.90
51996;DHT22;38010;53.264;6.592;2023-02-15T15:53:54;14.00;99.90
51996;DHT22;38010;53.264;6.592;2023-02-15T15:56:26;14.00;99.90
51996;DHT22;38010;53.264;6.592;2023-02-15T15:59:00;13.90;99.90
51996;DHT22;38010;53.264;6.592;2023-02-15T16:01:31;13.90;99.90
51996;DHT22;38010;53.264;6.592;2023-02-15T16:04:00;13.90;99.90
51996;DHT22;38010;53.264;6.592;2023-02-15T16:06:38;13.90;99.90
51996;DHT22;38010;53.264;6.592;2023-02-15T16:09:11;13.90;99.90
51996;DHT22;38010;53.264;6.592;2023-02-15T16:11:37;13.90;99.90
51996;DHT22;38010;53.264;6.592;2023-02-15T16:14:28;13.80;99.90
51996;DHT22;38010;53.264;6.592;2023-02-15T16:17:00;13.90;99.90
51996;DHT22;38010;53.264;6.592;2023-02-15T16:19:35;13.80;99.90
51996;DHT22;38010;53.264;6.592;2023-02-15T16:22:02;13.90;99.90
51996;DHT22;38010;53.264;6.592;2023-02-15T16:27:31;13.80;99.90
51996;DHT22;38010;53.264;6.592;2023-02-15T16:29:58;13.80;99.90
51996;DHT22;38010;53.264;6.592;2023-02-15T16:32:27;13.80;99.90
51996;DHT22;38010;53.264;6.592;2023-02-15T16:35:01;13.80;99.90
51996;DHT22;38010;53.264;6.592;2023-02-15T16:37:33;13.80;99.90
51996;DHT22;38010;53.264;6.592;2023-02-15T16:40:00;13.80;99.90
51996;DHT22;38010;53.264;6.592;2023-02-15T16:42:26;13.80;99.90
51996;DHT22;38010;53.264;6.592;2023-02-15T16:45:01;13.80;99.90
51996;DHT22;38010;53.264;6.592;2023-02-15T16:47:33;13.80;99.90
51996;DHT22;38010;53.264;6.592;2023-02-15T16:50:02;13.80;99.90
51996;DHT22;38010;53.264;6.592;2023-02-15T16:52:28;13.80;99.90
51996;DHT22;38010;53.264;6.592;2023-02-15T16:54:59;13.80;99.90
51996;DHT22;38010;53.264;6.592;2023-02-15T16:57:29;13.80;99.90
51996;DHT22;38010;53.264;6.592;2023-02-15T17:00:17;13.80;99.90
51996;DHT22;38010;53.264;6.592;2023-02-15T17:02:59;13.80;99.90
51996;DHT22;38010;53.264;6.592;2023-02-15T17:05:31;13.80;99.90
51996;DHT22;38010;53.264;6.592;2023-02-15T17:10:35;13.80;99.90
51996;DHT22;38010;53.264;6.592;2023-02-15T17:13:13;13.80;99.90
51996;DHT22;38010;53.264;6.592;2023-02-15T17:18:31;13.80;99.90
51996;DHT22;38010;53.264;6.592;2023-02-15T17:21:00;13.80;99.90
51996;DHT22;38010;53.264;6.592;2023-02-15T17:23:38;13.80;99.90
51996;DHT22;38010;53.264;6.592;2023-02-15T17:28:55;13.80;99.90
51996;DHT22;38010;53.264;6.592;2023-02-15T17:31:25;13.80;99.90
51996;DHT22;38010;53.264;6.592;2023-02-15T17:33:52;13.70;99.90
51996;DHT22;38010;53.264;6.592;2023-02-15T17:36:22;13.70;99.90
51996;DHT22;38010;53.264;6.592;2023-02-15T17:39:18;13.70;99.90
51996;DHT22;38010;53.264;6.592;2023-02-15T17:41:44;13.70;99.90
51996;DHT22;38010;53.264;6.592;2023-02-15T17:44:10;13.70;99.90
51996;DHT22;38010;53.264;6.592;2023-02-15T17:46:39;13.70;99.90
51996;DHT22;38010;53.264;6.592;2023-02-15T17:49:05;13.70;99.90
51996;DHT22;38010;53.264;6.592;2023-02-15T17:51:32;13.70;99.90
51996;DHT22;38010;53.264;6.592;2023-02-15T17:54:00;13.60;99.90
51996;DHT22;38010;53.264;6.592;2023-02-15T17:56:45;13.70;99.90
51996;DHT22;38010;53.264;6.592;2023-02-15T17:59:11;13.60;99.90
51996;DHT22;38010;53.264;6.592;2023-02-15T18:01:44;13.60;99.90
51996;DHT22;38010;53.264;6.592;2023-02-15T18:04:30;13.60;99.90
51996;DHT22;38010;53.264;6.592;2023-02-15T18:07:17;13.60;99.90
51996;DHT22;38010;53.264;6.592;2023-02-15T18:10:11;13.60;99.90
51996;DHT22;38010;53.264;6.592;2023-02-15T18:12:55;13.60;99.90
51996;DHT22;38010;53.264;6.592;2023-02-15T18:15:21;13.60;99.90
51996;DHT22;38010;53.264;6.592;2023-02-15T18:17:48;13.60;99.90
51996;DHT22;38010;53.264;6.592;2023-02-15T18:20:20;13.60;99.90
51996;DHT22;38010;53.264;6.592;2023-02-15T18:22:48;13.60;99.90
51996;DHT22;38010;53.264;6.592;2023-02-15T18:25:17;13.60;99.90
51996;DHT22;38010;53.264;6.592;2023-02-15T18:27:43;13.60;99.90
51996;DHT22;38010;53.264;6.592;2023-02-15T18:30:18;13.50;99.90
51996;DHT22;38010;53.264;6.592;2023-02-15T18:32:44;13.60;99.90
51996;DHT22;38010;53.264;6.592;2023-02-15T18:35:19;13.60;99.90
51996;DHT22;38010;53.264;6.592;2023-02-15T18:37:46;13.50;99.90
51996;DHT22;38010;53.264;6.592;2023-02-15T18:40:17;13.50;99.90
51996;DHT22;38010;53.264;6.592;2023-02-15T18:42:44;13.50;99.90
51996;DHT22;38010;53.264;6.592;2023-02-15T18:45:17;13.50;99.90
51996;DHT22;38010;53.264;6.592;2023-02-15T18:47:44;13.50;99.90
51996;DHT22;38010;53.264;6.592;2023-02-15T18:50:15;13.50;99.90
51996;DHT22;38010;53.264;6.592;2023-02-15T18:52:42;13.50;99.90
51996;DHT22;38010;53.264;6.592;2023-02-15T18:55:26;13.50;99.90
51996;DHT22;38010;53.264;6.592;2023-02-15T18:57:54;13.50;99.90
51996;DHT22;38010;53.264;6.592;2023-02-15T19:00:26;13.50;99.90
51996;DHT22;38010;53.264;6.592;2023-02-15T19:02:53;13.50;99.90
51996;DHT22;38010;53.264;6.592;2023-02-15T19:05:19;13.50;99.90
51996;DHT22;38010;53.264;6.592;2023-02-15T19:07:46;13.50;99.90
51996;DHT22;38010;53.264;6.592;2023-02-15T19:10:21;13.50;99.90
51996;DHT22;38010;53.264;6.592;2023-02-15T19:12:48;13.50;99.90
51996;DHT22;38010;53.264;6.592;2023-02-15T19:15:20;13.50;99.90
51996;DHT22;38010;53.264;6.592;2023-02-15T19:17:45;13.50;99.90
51996;DHT22;38010;53.264;6.592;2023-02-15T19:20:16;13.50;99.90
51996;DHT22;38010;53.264;6.592;2023-02-15T19:22:42;13.50;99.90
51996;DHT22;38010;53.264;6.592;2023-02-15T19:25:16;13.50;99.90
51996;DHT22;38010;53.264;6.592;2023-02-15T19:27:42;13.50;99.90
51996;DHT22;38010;53.264;6.592;2023-02-15T19:30:22;13.40;99.90
51996;DHT22;38010;53.264;6.592;2023-02-15T19:32:48;13.50;99.90
51996;DHT22;38010;53.264;6.592;2023-02-15T19:35:16;13.40;99.90
51996;DHT22;38010;53.264;6.592;2023-02-15T19:37:46;13.40;99.90
51996;DHT22;38010;53.264;6.592;2023-02-15T19:40:21;13.40;99.90